createdAt,value
2022-11-24T00:00:37.011Z,100043.69
2022-11-24T00:03:07.087Z,100043.03
2022-11-24T00:05:38.203Z,100038.48000000001
2022-11-24T00:08:06.904Z,100040.81
2022-11-24T00:10:36.900Z,100038.95
2022-11-24T00:13:06.992Z,100043.40999999999
2022-11-24T00:18:06.944Z,100050.53
2022-11-24T00:53:07.462Z,100056.76
2022-11-24T00:55:36.874Z,100052.39
2022-11-24T00:58:06.877Z,100061.75
2022-11-24T01:00:37.138Z,100066.74
2022-11-24T01:03:06.856Z,100074.5
2022-11-24T01:05:37.346Z,100101.45
2022-11-24T01:08:07.296Z,100101.79000000001
2022-11-24T01:10:37.322Z,100103.67
2022-11-24T01:13:07.003Z,100109.7
2022-11-24T01:15:37.077Z,100107.95000000001
2022-11-24T01:18:07.355Z,100109.09
2022-11-24T01:20:37.009Z,100114.12
2022-11-24T01:23:06.878Z,100119.5
2022-11-24T01:25:38.729Z,100122.49
2022-11-24T01:28:06.990Z,100124.01999999999
2022-11-24T01:30:37.181Z,100125.51999999999
2022-11-24T01:33:07.207Z,100127.65000000001
2022-11-24T01:35:36.889Z,100127.64
2022-11-24T01:38:06.885Z,100126.14
2022-11-24T01:40:36.961Z,100124.44
2022-11-24T01:43:14.952Z,100125.5
2022-11-24T01:45:39.930Z,100120.97
2022-11-24T01:48:13.486Z,100130.44
2022-11-24T01:50:36.963Z,100122.22
2022-11-24T01:53:07.505Z,100127.17
2022-11-24T01:58:11.145Z,100128.23
2022-11-24T02:00:39.321Z,100129.49
2022-11-24T02:03:08.209Z,100137.81
2022-11-24T02:05:42.906Z,100140.88
2022-11-24T02:08:16.494Z,100144.44
2022-11-24T02:13:07.140Z,100159.11
2022-11-24T02:15:37.149Z,100160.69
2022-11-24T02:18:07.129Z,100167.89
2022-11-24T02:20:37.257Z,100176.65
2022-11-24T02:23:16.098Z,100176.19
2022-11-24T02:25:46.152Z,100169.69
2022-11-24T02:28:11.736Z,100172.48
2022-11-24T02:30:37.218Z,100180.48999999999
2022-11-24T02:33:07.111Z,100182.33
2022-11-24T02:35:37.419Z,100182.08
2022-11-24T02:38:09.630Z,100184.34
2022-11-24T02:40:37.543Z,100186.81
2022-11-24T02:43:11.900Z,100187.87
2022-11-24T02:45:36.934Z,100199.27
2022-11-24T02:48:07.780Z,100199.65999999999
2022-11-24T02:50:37.140Z,100191.47
2022-11-24T02:53:06.964Z,100207.87
2022-11-24T02:55:37.102Z,100207.06
2022-11-24T02:58:07.072Z,100210.19
2022-11-24T03:00:37.184Z,100215.65000000001
2022-11-24T03:03:07.000Z,100228.05
2022-11-24T03:05:37.247Z,100222.26000000001
2022-11-24T03:08:06.964Z,100228.36
2022-11-24T03:10:36.941Z,100217.26999999999
2022-11-24T03:13:07.461Z,100228.3
2022-11-24T03:15:37.291Z,100221.73
2022-11-24T03:18:06.980Z,100225.42
2022-11-24T03:20:36.959Z,100227.23
2022-11-24T03:23:06.984Z,100236.21
2022-11-24T03:25:37.293Z,100236.21
2022-11-24T03:28:06.943Z,100241.69
2022-11-24T03:30:36.944Z,100246.8
2022-11-24T03:33:07.483Z,100246.03
2022-11-24T03:35:36.910Z,100246.12
2022-11-24T03:38:07.175Z,100253.8
2022-11-24T03:40:37.084Z,100253.44
2022-11-24T03:43:07.111Z,100252.06
2022-11-24T03:45:46.019Z,100257.15
2022-11-24T03:48:07.113Z,100254.86
2022-11-24T03:50:36.988Z,100251.25
2022-11-24T03:53:06.982Z,100260.79999999999
2022-11-24T03:55:37.103Z,100270.25
2022-11-24T03:58:07.038Z,100273.63
2022-11-24T04:00:36.947Z,100275.51
2022-11-24T04:03:08.037Z,100281.31
2022-11-24T04:05:37.025Z,100275.48000000001
2022-11-24T04:08:07.034Z,100275.17
2022-11-24T04:10:38.911Z,100272.13
2022-11-24T04:15:39.323Z,100286.46
2022-11-24T04:18:07.859Z,100279.38
2022-11-24T04:20:37.941Z,100285.24
2022-11-24T04:23:07.457Z,100279.31999999999
2022-11-24T04:25:37.807Z,100278.67
2022-11-24T04:28:07.337Z,100279.58
2022-11-24T04:30:37.650Z,100280.84999999999
2022-11-24T04:33:06.954Z,100285.20999999999
2022-11-24T04:35:36.972Z,100292.8
2022-11-24T04:38:07.183Z,100297.05
2022-11-24T04:40:37.467Z,100295.94
2022-11-24T04:48:06.944Z,100297.65
2022-11-24T04:50:38.910Z,100297.15
2022-11-24T04:53:08.798Z,100304.17
2022-11-24T04:55:37.476Z,100304.54999999999
2022-11-24T04:58:08.885Z,100305.8
2022-11-24T05:00:38.668Z,100304.94
2022-11-24T05:03:07.065Z,100307.12
2022-11-24T05:05:37.273Z,100317.76999999999
2022-11-24T05:08:08.083Z,100318.78
2022-11-24T05:10:37.094Z,100322.39
2022-11-24T05:13:10.351Z,100326.64
2022-11-24T05:15:38.585Z,100330.5
2022-11-24T05:18:11.393Z,100330.55
2022-11-24T05:20:37.672Z,100339.72
2022-11-24T05:23:07.434Z,100348.65999999999
2022-11-24T05:37:31.014Z,100380.44
2022-11-24T05:40:00.820Z,100380.44
2022-11-24T05:42:46.166Z,100392.3
2022-11-24T05:45:00.844Z,100397.16
2022-11-24T05:47:33.102Z,100400.67
2022-11-24T05:52:30.910Z,100412.18000000001
2022-11-24T05:55:01.060Z,100417.42
2022-11-24T05:57:30.967Z,100421.56
2022-11-24T06:00:03.053Z,100424.15999999999
2022-11-24T06:02:30.938Z,100435.35
2022-11-24T06:05:00.840Z,100436.91
2022-11-24T06:07:31.066Z,100438.92
2022-11-24T06:10:01.005Z,100443.16
2022-11-24T06:12:31.043Z,100450.9
2022-11-24T06:15:01.041Z,100460.06
2022-11-24T06:22:31.464Z,100457.44
2022-11-24T06:25:00.818Z,100461.14
2022-11-24T06:27:31.513Z,100469.05
2022-11-24T06:30:00.899Z,100472.92
2022-11-24T06:32:30.820Z,100477.61
2022-11-24T06:35:01.593Z,100479.35
2022-11-24T06:37:30.915Z,100484.05
2022-11-24T06:40:00.854Z,100485.88
2022-11-24T06:42:30.961Z,100489.69
2022-11-24T06:45:06.018Z,100491.78
2022-11-24T06:47:31.161Z,100493.59
2022-11-24T06:50:00.956Z,100497.99
2022-11-24T06:52:30.952Z,100500.67
2022-11-24T06:55:00.998Z,100507.84
2022-11-24T06:57:31.631Z,100514.72
2022-11-24T07:00:01.396Z,100520.67
2022-11-24T07:02:30.963Z,100521.38
2022-11-24T07:05:00.846Z,100526.53
2022-11-24T07:07:31.170Z,100527.19
2022-11-24T07:10:01.026Z,100529.25
2022-11-24T07:12:34.274Z,100529.81
2022-11-24T07:15:00.876Z,100534.93999999999
2022-11-24T07:20:01.018Z,100535.82
2022-11-24T07:25:01.831Z,100537.83
2022-11-24T07:27:30.820Z,100552.77
2022-11-24T07:30:01.050Z,100555.4
2022-11-24T07:32:30.872Z,100556.97
2022-11-24T07:35:00.840Z,100556.34999999999
2022-11-24T07:37:32.614Z,100563.7
2022-11-24T07:40:00.886Z,100567.25
2022-11-24T07:42:31.936Z,100574.31
2022-11-24T07:45:00.981Z,100577.06
2022-11-24T07:47:30.897Z,100578.61
2022-11-24T07:50:01.264Z,100581.47
2022-11-24T07:52:30.844Z,100592.55
2022-11-24T07:57:31.023Z,100605.11
2022-11-24T08:00:01.038Z,100614.0
2022-11-24T08:02:31.536Z,100616.3
2022-11-24T08:05:00.998Z,100621.7
2022-11-24T08:07:32.373Z,100624.98000000001
2022-11-24T08:10:00.852Z,100627.07
2022-11-24T08:12:30.998Z,100635.63
2022-11-24T08:15:03.295Z,100636.72
2022-11-24T08:17:30.851Z,100641.11
2022-11-24T08:20:01.034Z,100644.03
2022-11-24T08:22:31.095Z,100650.47
2022-11-24T08:25:00.993Z,100651.73
2022-11-24T08:27:31.188Z,100647.82
2022-11-24T08:30:00.976Z,100650.44
2022-11-24T08:32:30.977Z,100645.19
2022-11-24T08:35:13.520Z,100643.20999999999
2022-11-24T08:37:31.876Z,100645.17
2022-11-24T08:40:01.399Z,100658.67
2022-11-24T08:42:30.887Z,100662.58
2022-11-24T08:45:19.542Z,100668.91
2022-11-24T08:47:31.053Z,100671.47
2022-11-24T08:50:01.512Z,100677.91
2022-11-24T08:52:31.265Z,100679.06
2022-11-24T08:55:01.040Z,100683.29
2022-11-24T08:57:30.904Z,100687.47
2022-11-24T09:02:31.352Z,100694.53
2022-11-24T09:05:01.256Z,100696.33
2022-11-24T09:07:30.974Z,100705.4
2022-11-24T09:10:01.080Z,100705.44
2022-11-24T09:15:01.086Z,100712.47
2022-11-24T09:17:31.986Z,100717.46
2022-11-24T09:20:00.888Z,100719.06
2022-11-24T09:22:31.429Z,100721.3
2022-11-24T09:25:01.037Z,100720.59000000001
2022-11-24T09:27:31.214Z,100729.22
2022-11-24T09:30:01.487Z,100728.3
2022-11-24T09:35:00.920Z,100745.11
2022-11-24T09:37:32.932Z,100749.27
2022-11-24T09:40:01.073Z,100763.92
2022-11-24T09:42:41.634Z,100757.48
2022-11-24T09:47:40.996Z,100771.56
2022-11-24T09:50:04.309Z,100769.92
2022-11-24T09:52:39.478Z,100780.03
2022-11-24T09:55:02.373Z,100783.87
2022-11-24T09:57:37.549Z,100783.36
2022-11-24T10:00:07.191Z,100783.2
2022-11-24T10:02:31.171Z,100790.75
2022-11-24T10:05:01.025Z,100791.61
2022-11-24T10:07:39.149Z,100794.56
2022-11-24T10:10:10.677Z,100806.22
2022-11-24T10:12:46.935Z,100801.92
2022-11-24T10:15:18.290Z,100801.12000000001
2022-11-24T10:17:44.431Z,100804.15000000001
2022-11-24T10:20:05.377Z,100807.98999999999
2022-11-24T10:22:44.579Z,100813.39
2022-11-24T10:25:11.612Z,100813.7
2022-11-24T10:27:36.553Z,100814.5
2022-11-24T10:30:01.946Z,100816.88
2022-11-24T10:32:36.956Z,100818.36
2022-11-24T10:35:13.866Z,100814.26
2022-11-24T10:37:36.068Z,100813.21
2022-11-24T10:40:17.238Z,100818.76999999999
2022-11-24T10:42:35.899Z,100818.24
2022-11-24T10:45:02.629Z,100822.58
2022-11-24T10:50:08.375Z,100832.22
2022-11-24T10:52:37.040Z,100830.69
2022-11-24T10:55:03.946Z,100837.8
2022-11-24T10:57:32.905Z,100843.40999999999
2022-11-24T11:00:03.744Z,100844.84
2022-11-24T11:02:35.070Z,100844.2
2022-11-24T11:07:31.186Z,100849.72
2022-11-24T11:10:19.653Z,100850.9
2022-11-24T11:12:44.404Z,100851.45
2022-11-24T11:20:05.280Z,100854.42
2022-11-24T11:22:32.329Z,100857.67
2022-11-24T11:27:31.585Z,100858.5
2022-11-24T11:35:01.089Z,100866.64
2022-11-24T11:37:32.618Z,100872.24
2022-11-24T11:40:01.461Z,100872.05
2022-11-24T11:43:02.554Z,100868.93
2022-11-24T11:45:05.501Z,100873.06999999999
2022-11-24T11:47:37.504Z,100869.25
2022-11-24T11:50:01.445Z,100876.03
2022-11-24T11:52:46.905Z,100883.86
2022-11-24T11:55:16.699Z,100883.56
2022-11-24T11:57:41.284Z,100881.36
2022-11-24T12:00:10.140Z,100881.02
2022-11-24T12:02:53.584Z,100873.73999999999
2022-11-24T12:05:09.950Z,100882.54
2022-11-24T12:07:46.437Z,100881.61
2022-11-24T12:10:13.094Z,100883.2
2022-11-24T12:12:50.917Z,100888.23999999999
2022-11-24T12:15:11.353Z,100891.8
2022-11-24T12:17:39.400Z,100886.87999999999
2022-11-24T12:22:39.790Z,100892.98999999999
2022-11-24T12:25:18.124Z,100892.97
2022-11-24T12:27:40.533Z,100891.04
2022-11-24T12:30:09.312Z,100892.86
2022-11-24T12:32:50.826Z,100890.53
2022-11-24T12:35:15.155Z,100889.94
2022-11-24T12:37:44.427Z,100889.36
2022-11-24T12:40:08.562Z,100892.64
2022-11-24T12:42:40.988Z,100891.6
2022-11-24T12:45:12.301Z,100893.4
2022-11-24T12:47:48.704Z,100896.66
2022-11-24T12:50:08.120Z,100903.49
2022-11-24T12:52:36.639Z,100905.28
2022-11-24T12:55:02.506Z,100904.40999999999
2022-11-24T12:57:41.020Z,100904.85
2022-11-24T13:00:05.845Z,100909.05
2022-11-24T13:02:46.575Z,100908.56
2022-11-24T13:05:17.996Z,100906.31
2022-11-24T13:10:30.157Z,100907.89
2022-11-24T13:12:31.009Z,100906.23000000001
2022-11-24T13:15:36.205Z,100902.86
2022-11-24T13:17:47.627Z,100903.19
2022-11-24T13:20:13.662Z,100906.6
2022-11-24T13:22:31.602Z,100908.61
2022-11-24T13:25:13.716Z,100911.64
2022-11-24T13:27:41.236Z,100908.69
2022-11-24T13:30:01.160Z,100916.97
2022-11-24T13:32:45.747Z,100908.22
2022-11-24T13:35:02.960Z,100911.11
2022-11-24T13:37:45.032Z,100918.44
2022-11-24T13:40:12.449Z,100918.58
2022-11-24T13:42:44.418Z,100922.90000000001
2022-11-24T13:45:02.912Z,100919.11
2022-11-24T13:47:34.321Z,100918.08
2022-11-24T13:50:03.226Z,100923.44
2022-11-24T13:52:42.839Z,100918.59
2022-11-24T13:55:02.662Z,100919.36
2022-11-24T13:57:33.343Z,100925.87
2022-11-24T14:00:02.591Z,100933.33
2022-11-24T14:02:33.598Z,100935.47
2022-11-24T14:07:31.134Z,100937.51999999999
2022-11-24T14:10:01.461Z,100937.81
2022-11-24T14:12:32.829Z,100935.65999999999
2022-11-24T14:15:19.960Z,100936.86
2022-11-24T14:17:31.011Z,100941.38
2022-11-24T14:20:15.953Z,100938.95999999999
2022-11-24T14:22:36.040Z,100938.01999999999
2022-11-24T14:25:02.529Z,100945.68000000001
2022-11-24T14:27:33.644Z,100938.29
2022-11-24T14:30:04.119Z,100938.65
2022-11-24T14:32:31.287Z,100940.18
2022-11-24T14:35:01.300Z,100940.84
2022-11-24T14:37:31.842Z,100940.84
2022-11-24T14:40:00.990Z,100938.0
2022-11-24T14:42:32.406Z,100944.94
2022-11-24T14:45:03.384Z,100942.72
2022-11-24T14:47:35.249Z,100943.25
2022-11-24T14:50:12.862Z,100938.22
2022-11-24T14:52:31.266Z,100944.76
2022-11-24T14:55:17.623Z,100940.3
2022-11-24T14:57:32.856Z,100946.42
2022-11-24T15:00:06.660Z,100951.81
2022-11-24T15:02:41.046Z,100950.36
2022-11-24T15:05:03.383Z,100953.73
2022-11-24T15:07:31.428Z,100953.7
2022-11-24T15:10:03.796Z,100948.90000000001
2022-11-24T15:12:35.726Z,100950.22
2022-11-24T15:15:03.908Z,100950.23
2022-11-24T15:17:32.246Z,100951.48000000001
2022-11-24T15:20:06.851Z,100945.11
2022-11-24T15:22:34.997Z,100951.09999999999
2022-11-24T15:25:02.265Z,100945.29
2022-11-24T15:27:31.127Z,100952.59
2022-11-24T15:32:31.071Z,100944.39
2022-11-24T15:35:01.319Z,100947.0
2022-11-24T15:37:34.130Z,100948.24
2022-11-24T15:40:01.104Z,100946.23
2022-11-24T15:42:31.094Z,100952.62
2022-11-24T15:45:01.098Z,100949.76000000001
2022-11-24T15:47:31.072Z,100949.64
2022-11-24T15:50:01.243Z,100946.48999999999
2022-11-24T15:52:31.104Z,100949.19
2022-11-24T15:55:01.425Z,100951.76
2022-11-24T15:57:33.280Z,100945.61
2022-11-24T16:00:01.317Z,100947.38
2022-11-24T16:02:31.519Z,100950.44
2022-11-24T16:05:01.044Z,100953.15000000001
2022-11-24T16:07:31.374Z,100952.89
2022-11-24T16:12:31.515Z,100958.73
2022-11-24T16:15:01.192Z,100960.63
2022-11-24T16:17:31.212Z,100961.91
2022-11-24T16:20:01.601Z,100967.33
2022-11-24T16:22:31.009Z,100971.1
2022-11-24T16:25:03.199Z,100972.63
2022-11-24T16:27:31.368Z,100973.51
2022-11-24T16:30:01.146Z,100973.24
2022-11-24T16:32:31.240Z,100967.25
2022-11-24T16:35:01.178Z,100971.57999999999
2022-11-24T16:37:31.419Z,100971.82
2022-11-24T16:40:01.623Z,100968.66
2022-11-24T16:42:31.451Z,100967.92
2022-11-24T16:45:01.178Z,100974.2
2022-11-24T16:50:01.347Z,100971.66
2022-11-24T16:52:31.201Z,100971.56999999999
2022-11-24T16:55:01.177Z,100965.45
2022-11-24T16:57:31.379Z,100966.09
2022-11-24T17:00:01.257Z,100965.62
2022-11-24T17:02:32.761Z,100970.89
2022-11-24T17:05:01.388Z,100977.29000000001
2022-11-24T17:07:32.652Z,100986.23999999999
2022-11-24T17:10:01.223Z,100985.82
2022-11-24T17:12:31.069Z,100984.74
2022-11-24T17:15:31.080Z,100973.61
2022-11-24T17:17:31.265Z,100974.67
2022-11-24T17:20:01.059Z,100973.44
2022-11-24T17:22:31.082Z,100973.53
2022-11-24T17:25:01.034Z,100976.9
2022-11-24T17:27:31.168Z,100979.12
2022-11-24T17:30:01.256Z,100977.20000000001
2022-11-24T17:32:31.339Z,100974.42
2022-11-24T17:37:31.192Z,100970.04
2022-11-24T17:40:26.810Z,100971.77
2022-11-24T17:42:31.905Z,100974.28
2022-11-24T17:45:01.062Z,100979.31999999999
2022-11-24T17:50:01.227Z,100974.33
2022-11-24T17:52:31.248Z,100981.91
2022-11-24T17:55:01.517Z,100981.34999999999
2022-11-24T17:57:31.072Z,100983.91
2022-11-24T18:00:01.633Z,100979.9
2022-11-24T18:02:31.184Z,100983.86
2022-11-24T18:05:01.427Z,100984.84
2022-11-24T18:07:31.245Z,100980.48999999999
2022-11-24T18:10:01.243Z,100986.95999999999
2022-11-24T18:15:01.825Z,100985.46
2022-11-24T18:17:31.150Z,100980.5
2022-11-24T18:20:01.308Z,100979.39
2022-11-24T18:22:57.881Z,100981.59000000001
2022-11-24T18:25:01.139Z,100980.5
2022-11-24T18:27:31.332Z,100989.57
2022-11-24T18:30:01.470Z,100987.51999999999
2022-11-24T18:32:31.253Z,100987.7
2022-11-24T18:35:01.274Z,100989.95999999999
2022-11-24T18:37:32.534Z,100986.21
2022-11-24T18:40:01.583Z,100977.89
2022-11-24T18:42:31.126Z,100975.81
2022-11-24T18:45:01.259Z,100972.43
2022-11-24T18:47:31.114Z,100972.99
2022-11-24T18:50:01.184Z,100977.59999999999
2022-11-24T18:52:31.095Z,100979.13
2022-11-24T18:55:03.130Z,100979.0
2022-11-24T18:57:31.323Z,100982.78
2022-11-24T19:02:31.315Z,100981.9
2022-11-24T19:05:02.045Z,100977.9
2022-11-24T19:07:31.996Z,100977.70000000001
2022-11-24T19:10:01.388Z,100972.42
2022-11-24T19:12:31.108Z,100968.75
2022-11-24T19:15:01.223Z,100964.03
2022-11-24T19:17:31.143Z,100963.06
2022-11-24T19:20:01.285Z,100961.25
2022-11-24T19:22:31.157Z,100966.86
2022-11-24T19:25:01.131Z,100968.66
2022-11-24T19:27:33.276Z,100961.67
2022-11-24T19:30:01.296Z,100960.31
2022-11-24T19:32:31.429Z,100961.90000000001
2022-11-24T19:35:01.448Z,100960.51999999999
2022-11-24T19:37:31.119Z,100960.69
2022-11-24T19:40:01.188Z,100956.42
2022-11-24T19:42:31.260Z,100950.51
2022-11-24T19:45:01.153Z,100951.09
2022-11-24T19:47:31.399Z,100953.85
2022-11-24T19:52:31.304Z,100950.92
2022-11-24T19:55:01.205Z,100944.06
2022-11-24T19:57:31.271Z,100950.62000000001
2022-11-24T20:00:01.172Z,100949.34
2022-11-24T20:02:31.420Z,100947.6
2022-11-24T20:05:01.152Z,100946.19
2022-11-24T20:07:31.133Z,100946.22
2022-11-24T20:15:01.535Z,100937.86
2022-11-24T20:17:31.762Z,100935.25
2022-11-24T20:20:01.153Z,100933.64
2022-11-24T20:22:31.292Z,100935.41
2022-11-24T20:27:31.443Z,100939.14
2022-11-24T20:30:01.178Z,100944.26
2022-11-24T20:32:31.162Z,100941.31999999999
2022-11-24T20:35:01.148Z,100941.18999999999
2022-11-24T20:37:32.396Z,100936.89
2022-11-24T20:40:03.043Z,100941.53
2022-11-24T20:42:31.267Z,100938.14
2022-11-24T20:45:01.229Z,100937.01999999999
2022-11-24T20:47:31.529Z,100932.72
2022-11-24T20:50:01.383Z,100931.84
2022-11-24T20:55:02.977Z,100926.51
2022-11-24T20:57:31.162Z,100926.73
2022-11-24T21:00:01.326Z,100929.92
2022-11-24T21:02:31.287Z,100928.45
2022-11-24T21:05:01.148Z,100929.21
2022-11-24T21:07:31.397Z,100928.52
2022-11-24T21:10:01.285Z,100926.78
2022-11-24T21:12:31.242Z,100925.08
2022-11-24T21:15:01.271Z,100927.45
2022-11-24T21:17:31.756Z,100926.08
2022-11-24T21:20:01.507Z,100923.33
2022-11-24T21:22:31.158Z,100925.53
2022-11-24T21:25:01.300Z,100920.22
2022-11-24T21:27:31.385Z,100921.66
2022-11-24T21:30:01.274Z,100921.39
2022-11-24T21:32:33.137Z,100914.18
2022-11-24T21:35:01.191Z,100912.85
2022-11-24T21:37:31.168Z,100903.78
2022-11-24T21:40:01.285Z,100913.86
2022-11-24T21:42:31.150Z,100913.31999999999
2022-11-24T21:45:01.532Z,100919.28
2022-11-24T21:47:31.164Z,100917.69
2022-11-24T21:50:01.217Z,100912.87
2022-11-24T21:52:31.432Z,100918.42
2022-11-24T21:55:01.126Z,100913.61
2022-11-24T21:57:31.212Z,100917.89
2022-11-24T22:00:01.175Z,100926.09
2022-11-24T22:02:31.343Z,100914.07
2022-11-24T22:07:32.165Z,100908.45000000001
2022-11-24T22:10:01.176Z,100899.69
2022-11-24T22:12:31.154Z,100897.54000000001
2022-11-24T22:15:01.312Z,100898.94
2022-11-24T22:17:31.136Z,100901.81
2022-11-24T22:20:01.253Z,100896.45000000001
2022-11-24T22:22:31.197Z,100899.1
2022-11-24T22:25:01.190Z,100907.17
2022-11-24T22:27:31.350Z,100904.13
2022-11-24T22:30:03.904Z,100900.51
2022-11-24T22:32:31.160Z,100898.75
2022-11-24T22:35:01.313Z,100896.40000000001
2022-11-24T22:37:31.389Z,100903.53
2022-11-24T22:40:01.257Z,100905.0
2022-11-24T22:42:31.307Z,100902.4
2022-11-24T22:45:01.170Z,100897.52
2022-11-24T22:50:01.377Z,100901.09
2022-11-24T22:52:32.792Z,100901.87
2022-11-24T22:55:01.227Z,100899.08
2022-11-24T22:57:31.320Z,100895.92
2022-11-24T23:00:01.485Z,100901.64
2022-11-24T23:02:31.218Z,100896.3
2022-11-24T23:05:01.338Z,100893.84999999999
2022-11-24T23:07:31.549Z,100887.92
2022-11-24T23:10:01.478Z,100888.98000000001
2022-11-24T23:12:31.295Z,100889.21
2022-11-24T23:15:01.163Z,100882.64
2022-11-24T23:17:31.204Z,100886.89
2022-11-24T23:20:01.344Z,100887.22
2022-11-24T23:22:31.479Z,100880.39
2022-11-24T23:25:01.209Z,100880.29000000001
2022-11-24T23:27:31.217Z,100876.25
2022-11-24T23:30:01.368Z,100874.11
2022-11-24T23:35:01.278Z,100878.8
2022-11-24T23:37:52.124Z,100881.37000000001
2022-11-24T23:40:01.166Z,100878.09
2022-11-24T23:45:01.218Z,100873.41
2022-11-24T23:47:31.352Z,100863.42
2022-11-24T23:50:01.328Z,100860.70999999999
2022-11-24T23:52:31.190Z,100863.21
2022-11-24T23:55:01.438Z,100857.72
2022-11-24T23:57:31.193Z,100860.70999999999
